Wingerworth, United Kingdom
Current Conditions -  °F | °C
As of 1:50 PM on Wednesday 28 Jan 2015 (Local Time) from EGNX Reporting Station
Rain Showers Rain Showers  
Wind Chill: 32°   Ceiling: Unl
Heat Index: 41°   Visibility: 6mi
Dew Point: 32°   Wind: 18mph
Humidity: 70%   Direction: 290°WNW
Pressure: 29.47"   Gusts: 32mph
Location:  53.2°N, 1.44°W
Report Text: EGNX 281350Z 29016G28KT 9999 VCSH FEW010 SCT035 05/M00 Q0998
Loading
Personal Weather Stations






























Interactive Weather Map New forecast layout! Learn more

10-Day Weather Forecast

Advertisements
Track Severe Weather on mobile